sensor_id;sensor_type;location;lat;lon;timestamp;P1;durP1;ratioP1;P2;durP2;ratioP2
27428;SDS011;14881;48.092;11.574;2022-11-25T00:01:04;5.07;;;2.67;;
27428;SDS011;14881;48.092;11.574;2022-11-25T00:03:33;5.13;;;2.83;;
27428;SDS011;14881;48.092;11.574;2022-11-25T00:06:11;4.30;;;2.40;;
27428;SDS011;14881;48.092;11.574;2022-11-25T00:08:41;7.28;;;2.60;;
27428;SDS011;14881;48.092;11.574;2022-11-25T00:11:11;4.15;;;2.28;;
27428;SDS011;14881;48.092;11.574;2022-11-25T00:13:39;5.25;;;3.28;;
27428;SDS011;14881;48.092;11.574;2022-11-25T00:16:08;4.13;;;2.88;;
27428;SDS011;14881;48.092;11.574;2022-11-25T00:18:37;4.32;;;2.33;;
27428;SDS011;14881;48.092;11.574;2022-11-25T00:21:06;3.60;;;2.30;;
27428;SDS011;14881;48.092;11.574;2022-11-25T00:23:36;5.00;;;2.90;;
27428;SDS011;14881;48.092;11.574;2022-11-25T00:26:06;4.63;;;2.92;;
27428;SDS011;14881;48.092;11.574;2022-11-25T00:28:34;5.65;;;2.80;;
27428;SDS011;14881;48.092;11.574;2022-11-25T00:31:03;4.78;;;2.83;;
27428;SDS011;14881;48.092;11.574;2022-11-25T00:33:31;5.13;;;2.95;;
27428;SDS011;14881;48.092;11.574;2022-11-25T00:35:59;4.07;;;3.00;;
27428;SDS011;14881;48.092;11.574;2022-11-25T00:38:28;5.00;;;2.70;;
27428;SDS011;14881;48.092;11.574;2022-11-25T00:40:56;3.55;;;2.80;;
27428;SDS011;14881;48.092;11.574;2022-11-25T00:43:39;3.70;;;2.80;;
27428;SDS011;14881;48.092;11.574;2022-11-25T00:46:24;5.45;;;2.80;;
27428;SDS011;14881;48.092;11.574;2022-11-25T00:48:51;5.35;;;3.03;;
27428;SDS011;14881;48.092;11.574;2022-11-25T00:51:19;7.65;;;2.60;;
27428;SDS011;14881;48.092;11.574;2022-11-25T00:53:47;4.50;;;2.50;;
27428;SDS011;14881;48.092;11.574;2022-11-25T00:56:21;4.35;;;2.65;;
27428;SDS011;14881;48.092;11.574;2022-11-25T00:58:51;9.70;;;2.50;;
27428;SDS011;14881;48.092;11.574;2022-11-25T01:01:19;3.83;;;2.50;;
27428;SDS011;14881;48.092;11.574;2022-11-25T01:03:47;4.00;;;2.65;;
27428;SDS011;14881;48.092;11.574;2022-11-25T01:06:15;7.38;;;2.55;;
27428;SDS011;14881;48.092;11.574;2022-11-25T01:08:43;3.92;;;2.17;;
27428;SDS011;14881;48.092;11.574;2022-11-25T01:11:13;7.82;;;2.80;;
27428;SDS011;14881;48.092;11.574;2022-11-25T01:13:42;4.88;;;2.63;;
27428;SDS011;14881;48.092;11.574;2022-11-25T01:16:11;3.97;;;2.58;;
27428;SDS011;14881;48.092;11.574;2022-11-25T01:18:41;6.70;;;2.88;;
27428;SDS011;14881;48.092;11.574;2022-11-25T01:21:11;4.07;;;2.40;;
27428;SDS011;14881;48.092;11.574;2022-11-25T01:23:40;3.83;;;2.90;;
27428;SDS011;14881;48.092;11.574;2022-11-25T01:26:09;6.38;;;2.47;;
27428;SDS011;14881;48.092;11.574;2022-11-25T01:28:38;3.13;;;2.30;;
27428;SDS011;14881;48.092;11.574;2022-11-25T01:31:07;3.67;;;2.60;;
27428;SDS011;14881;48.092;11.574;2022-11-25T01:33:37;5.07;;;2.72;;
27428;SDS011;14881;48.092;11.574;2022-11-25T01:36:06;5.30;;;2.17;;
27428;SDS011;14881;48.092;11.574;2022-11-25T01:38:35;3.53;;;2.58;;
27428;SDS011;14881;48.092;11.574;2022-11-25T01:41:04;4.85;;;2.20;;
27428;SDS011;14881;48.092;11.574;2022-11-25T01:43:32;3.88;;;2.10;;
27428;SDS011;14881;48.092;11.574;2022-11-25T01:46:02;4.20;;;2.30;;
27428;SDS011;14881;48.092;11.574;2022-11-25T01:48:36;4.22;;;2.50;;
27428;SDS011;14881;48.092;11.574;2022-11-25T01:51:12;4.45;;;2.65;;
27428;SDS011;14881;48.092;11.574;2022-11-25T01:53:47;3.75;;;2.58;;
27428;SDS011;14881;48.092;11.574;2022-11-25T01:56:16;4.20;;;2.50;;
27428;SDS011;14881;48.092;11.574;2022-11-25T01:58:45;5.88;;;2.70;;
27428;SDS011;14881;48.092;11.574;2022-11-25T02:01:15;5.43;;;2.58;;
27428;SDS011;14881;48.092;11.574;2022-11-25T02:03:45;5.38;;;2.10;;
27428;SDS011;14881;48.092;11.574;2022-11-25T02:06:16;3.05;;;2.13;;
27428;SDS011;14881;48.092;11.574;2022-11-25T02:08:49;5.65;;;2.30;;
27428;SDS011;14881;48.092;11.574;2022-11-25T02:11:19;4.00;;;2.47;;
27428;SDS011;14881;48.092;11.574;2022-11-25T02:13:49;3.42;;;2.30;;
27428;SDS011;14881;48.092;11.574;2022-11-25T02:16:17;3.15;;;2.53;;
27428;SDS011;14881;48.092;11.574;2022-11-25T02:18:47;5.13;;;2.28;;
27428;SDS011;14881;48.092;11.574;2022-11-25T02:21:16;3.35;;;2.40;;
27428;SDS011;14881;48.092;11.574;2022-11-25T02:23:50;2.50;;;2.10;;
27428;SDS011;14881;48.092;11.574;2022-11-25T02:26:24;5.30;;;2.40;;
27428;SDS011;14881;48.092;11.574;2022-11-25T02:28:52;3.83;;;2.30;;
27428;SDS011;14881;48.092;11.574;2022-11-25T02:31:20;2.83;;;2.03;;
27428;SDS011;14881;48.092;11.574;2022-11-25T02:33:49;4.07;;;2.33;;
27428;SDS011;14881;48.092;11.574;2022-11-25T02:36:17;4.05;;;2.42;;
27428;SDS011;14881;48.092;11.574;2022-11-25T02:38:48;2.97;;;2.17;;
27428;SDS011;14881;48.092;11.574;2022-11-25T02:41:20;2.33;;;2.13;;
27428;SDS011;14881;48.092;11.574;2022-11-25T02:43:53;2.88;;;2.03;;
27428;SDS011;14881;48.092;11.574;2022-11-25T02:46:21;4.47;;;2.00;;
27428;SDS011;14881;48.092;11.574;2022-11-25T02:48:51;2.40;;;2.20;;
27428;SDS011;14881;48.092;11.574;2022-11-25T02:51:37;3.97;;;2.20;;
27428;SDS011;14881;48.092;11.574;2022-11-25T02:54:06;4.75;;;2.80;;
27428;SDS011;14881;48.092;11.574;2022-11-25T02:56:34;2.30;;;2.10;;
27428;SDS011;14881;48.092;11.574;2022-11-25T02:59:04;7.03;;;2.15;;
27428;SDS011;14881;48.092;11.574;2022-11-25T03:01:33;4.18;;;2.10;;
27428;SDS011;14881;48.092;11.574;2022-11-25T03:04:01;2.60;;;2.03;;
27428;SDS011;14881;48.092;11.574;2022-11-25T03:06:29;2.47;;;1.95;;
27428;SDS011;14881;48.092;11.574;2022-11-25T03:08:57;2.63;;;2.10;;
27428;SDS011;14881;48.092;11.574;2022-11-25T03:11:25;1.80;;;1.70;;
27428;SDS011;14881;48.092;11.574;2022-11-25T03:14:08;4.15;;;2.03;;
27428;SDS011;14881;48.092;11.574;2022-11-25T03:16:36;3.35;;;1.92;;
27428;SDS011;14881;48.092;11.574;2022-11-25T03:19:04;3.20;;;2.22;;
27428;SDS011;14881;48.092;11.574;2022-11-25T03:21:33;2.28;;;2.08;;
27428;SDS011;14881;48.092;11.574;2022-11-25T03:24:01;1.90;;;1.80;;
27428;SDS011;14881;48.092;11.574;2022-11-25T03:26:29;2.50;;;2.30;;
27428;SDS011;14881;48.092;11.574;2022-11-25T03:28:56;2.95;;;1.70;;
27428;SDS011;14881;48.092;11.574;2022-11-25T03:31:25;4.28;;;2.45;;
27428;SDS011;14881;48.092;11.574;2022-11-25T03:33:54;2.47;;;1.80;;
27428;SDS011;14881;48.092;11.574;2022-11-25T03:36:22;6.93;;;2.42;;
27428;SDS011;14881;48.092;11.574;2022-11-25T03:38:49;2.92;;;2.42;;
27428;SDS011;14881;48.092;11.574;2022-11-25T03:41:17;2.83;;;1.80;;
27428;SDS011;14881;48.092;11.574;2022-11-25T03:43:45;2.90;;;1.98;;
27428;SDS011;14881;48.092;11.574;2022-11-25T03:46:14;2.05;;;1.85;;
27428;SDS011;14881;48.092;11.574;2022-11-25T03:48:43;5.10;;;2.10;;
27428;SDS011;14881;48.092;11.574;2022-11-25T03:51:11;2.53;;;2.08;;
27428;SDS011;14881;48.092;11.574;2022-11-25T03:53:38;2.70;;;1.75;;
27428;SDS011;14881;48.092;11.574;2022-11-25T03:56:06;3.95;;;2.10;;
27428;SDS011;14881;48.092;11.574;2022-11-25T03:58:34;2.47;;;2.00;;
27428;SDS011;14881;48.092;11.574;2022-11-25T04:01:02;3.55;;;2.17;;
27428;SDS011;14881;48.092;11.574;2022-11-25T04:03:30;5.13;;;2.80;;
27428;SDS011;14881;48.092;11.574;2022-11-25T04:06:00;2.40;;;2.10;;
27428;SDS011;14881;48.092;11.574;2022-11-25T04:08:27;2.17;;;1.63;;
27428;SDS011;14881;48.092;11.574;2022-11-25T04:10:55;2.60;;;2.00;;
27428;SDS011;14881;48.092;11.574;2022-11-25T04:13:23;2.80;;;1.75;;
27428;SDS011;14881;48.092;11.574;2022-11-25T04:15:50;2.30;;;2.10;;
27428;SDS011;14881;48.092;11.574;2022-11-25T04:18:18;2.83;;;2.20;;
27428;SDS011;14881;48.092;11.574;2022-11-25T04:20:46;2.33;;;2.10;;
27428;SDS011;14881;48.092;11.574;2022-11-25T04:23:15;2.42;;;1.95;;
27428;SDS011;14881;48.092;11.574;2022-11-25T04:25:42;3.67;;;2.10;;
27428;SDS011;14881;48.092;11.574;2022-11-25T04:28:10;6.55;;;2.47;;
27428;SDS011;14881;48.092;11.574;2022-11-25T04:30:38;2.58;;;1.88;;
27428;SDS011;14881;48.092;11.574;2022-11-25T04:33:06;6.65;;;2.22;;
27428;SDS011;14881;48.092;11.574;2022-11-25T04:35:33;4.43;;;2.08;;
27428;SDS011;14881;48.092;11.574;2022-11-25T04:38:01;4.40;;;2.03;;
27428;SDS011;14881;48.092;11.574;2022-11-25T04:40:30;2.47;;;1.92;;
27428;SDS011;14881;48.092;11.574;2022-11-25T04:42:58;2.50;;;2.30;;
27428;SDS011;14881;48.092;11.574;2022-11-25T04:45:34;4.13;;;1.77;;
27428;SDS011;14881;48.092;11.574;2022-11-25T04:48:22;4.30;;;1.75;;
27428;SDS011;14881;48.092;11.574;2022-11-25T04:50:49;3.67;;;2.10;;
27428;SDS011;14881;48.092;11.574;2022-11-25T04:53:17;5.40;;;1.88;;
27428;SDS011;14881;48.092;11.574;2022-11-25T04:55:46;6.13;;;2.08;;
27428;SDS011;14881;48.092;11.574;2022-11-25T04:58:14;4.22;;;2.38;;
27428;SDS011;14881;48.092;11.574;2022-11-25T05:01:02;5.43;;;2.42;;
27428;SDS011;14881;48.092;11.574;2022-11-25T05:03:30;2.42;;;2.00;;
27428;SDS011;14881;48.092;11.574;2022-11-25T05:05:57;2.67;;;2.00;;
27428;SDS011;14881;48.092;11.574;2022-11-25T05:08:25;3.67;;;2.13;;
27428;SDS011;14881;48.092;11.574;2022-11-25T05:10:54;3.05;;;2.13;;
27428;SDS011;14881;48.092;11.574;2022-11-25T05:13:22;2.53;;;2.10;;
27428;SDS011;14881;48.092;11.574;2022-11-25T05:15:49;2.70;;;2.30;;
27428;SDS011;14881;48.092;11.574;2022-11-25T05:18:17;3.78;;;2.28;;
27428;SDS011;14881;48.092;11.574;2022-11-25T05:20:45;3.55;;;2.17;;
27428;SDS011;14881;48.092;11.574;2022-11-25T05:23:12;1.88;;;1.70;;
27428;SDS011;14881;48.092;11.574;2022-11-25T05:25:40;3.03;;;2.10;;
27428;SDS011;14881;48.092;11.574;2022-11-25T05:28:09;2.67;;;2.17;;
27428;SDS011;14881;48.092;11.574;2022-11-25T05:30:37;2.90;;;2.05;;
27428;SDS011;14881;48.092;11.574;2022-11-25T05:33:05;2.67;;;2.03;;
27428;SDS011;14881;48.092;11.574;2022-11-25T05:35:32;2.53;;;1.90;;
27428;SDS011;14881;48.092;11.574;2022-11-25T05:38:00;3.20;;;2.40;;
27428;SDS011;14881;48.092;11.574;2022-11-25T05:40:29;4.20;;;1.85;;
27428;SDS011;14881;48.092;11.574;2022-11-25T05:42:58;6.32;;;2.65;;
27428;SDS011;14881;48.092;11.574;2022-11-25T05:45:28;3.35;;;1.63;;
27428;SDS011;14881;48.092;11.574;2022-11-25T05:47:56;5.18;;;2.30;;
27428;SDS011;14881;48.092;11.574;2022-11-25T05:50:23;1.80;;;1.70;;
27428;SDS011;14881;48.092;11.574;2022-11-25T05:52:51;2.08;;;1.95;;
27428;SDS011;14881;48.092;11.574;2022-11-25T05:55:19;5.57;;;2.00;;
27428;SDS011;14881;48.092;11.574;2022-11-25T05:57:46;2.22;;;1.90;;
27428;SDS011;14881;48.092;11.574;2022-11-25T06:00:14;3.05;;;2.17;;
27428;SDS011;14881;48.092;11.574;2022-11-25T06:02:49;2.70;;;2.00;;
27428;SDS011;14881;48.092;11.574;2022-11-25T06:05:17;3.10;;;2.33;;
27428;SDS011;14881;48.092;11.574;2022-11-25T06:07:45;2.75;;;2.05;;
27428;SDS011;14881;48.092;11.574;2022-11-25T06:10:13;2.67;;;2.13;;
27428;SDS011;14881;48.092;11.574;2022-11-25T06:12:41;1.88;;;1.70;;
27428;SDS011;14881;48.092;11.574;2022-11-25T06:15:09;3.90;;;1.90;;
27428;SDS011;14881;48.092;11.574;2022-11-25T06:17:37;1.70;;;1.60;;
27428;SDS011;14881;48.092;11.574;2022-11-25T06:20:07;2.83;;;2.35;;
27428;SDS011;14881;48.092;11.574;2022-11-25T06:22:35;2.20;;;2.00;;
27428;SDS011;14881;48.092;11.574;2022-11-25T06:25:03;2.30;;;2.00;;
27428;SDS011;14881;48.092;11.574;2022-11-25T06:27:32;2.00;;;1.80;;
27428;SDS011;14881;48.092;11.574;2022-11-25T06:30:20;3.85;;;2.10;;
27428;SDS011;14881;48.092;11.574;2022-11-25T06:32:48;2.25;;;1.95;;
27428;SDS011;14881;48.092;11.574;2022-11-25T06:35:17;3.70;;;1.75;;
27428;SDS011;14881;48.092;11.574;2022-11-25T06:37:45;2.38;;;1.80;;
27428;SDS011;14881;48.092;11.574;2022-11-25T06:40:13;2.25;;;1.90;;
27428;SDS011;14881;48.092;11.574;2022-11-25T06:42:41;2.42;;;1.77;;
27428;SDS011;14881;48.092;11.574;2022-11-25T06:45:09;6.00;;;2.05;;
27428;SDS011;14881;48.092;11.574;2022-11-25T06:47:37;2.67;;;2.10;;
27428;SDS011;14881;48.092;11.574;2022-11-25T06:50:05;1.83;;;1.70;;
27428;SDS011;14881;48.092;11.574;2022-11-25T06:52:35;3.80;;;1.80;;
27428;SDS011;14881;48.092;11.574;2022-11-25T06:55:03;1.95;;;1.60;;
27428;SDS011;14881;48.092;11.574;2022-11-25T06:57:32;3.50;;;2.25;;
27428;SDS011;14881;48.092;11.574;2022-11-25T06:59:59;2.38;;;2.13;;
27428;SDS011;14881;48.092;11.574;2022-11-25T07:02:27;4.18;;;2.03;;
27428;SDS011;14881;48.092;11.574;2022-11-25T07:05:01;3.45;;;1.95;;
27428;SDS011;14881;48.092;11.574;2022-11-25T07:07:29;2.85;;;1.88;;
27428;SDS011;14881;48.092;11.574;2022-11-25T07:09:58;2.40;;;1.63;;
27428;SDS011;14881;48.092;11.574;2022-11-25T07:12:26;3.15;;;2.00;;
27428;SDS011;14881;48.092;11.574;2022-11-25T07:14:53;9.65;;;5.72;;
27428;SDS011;14881;48.092;11.574;2022-11-25T07:17:21;7.60;;;5.18;;
27428;SDS011;14881;48.092;11.574;2022-11-25T07:19:49;11.30;;;6.28;;
27428;SDS011;14881;48.092;11.574;2022-11-25T07:22:16;10.65;;;7.10;;
27428;SDS011;14881;48.092;11.574;2022-11-25T07:24:44;16.65;;;9.68;;
27428;SDS011;14881;48.092;11.574;2022-11-25T07:27:13;16.65;;;9.98;;
27428;SDS011;14881;48.092;11.574;2022-11-25T07:29:41;16.77;;;9.00;;
27428;SDS011;14881;48.092;11.574;2022-11-25T07:32:31;17.88;;;11.35;;
27428;SDS011;14881;48.092;11.574;2022-11-25T07:34:59;18.65;;;12.23;;
27428;SDS011;14881;48.092;11.574;2022-11-25T07:37:27;16.25;;;11.13;;
27428;SDS011;14881;48.092;11.574;2022-11-25T07:39:56;10.27;;;7.60;;
27428;SDS011;14881;48.092;11.574;2022-11-25T07:42:25;6.30;;;4.80;;
27428;SDS011;14881;48.092;11.574;2022-11-25T07:44:53;4.50;;;3.67;;
27428;SDS011;14881;48.092;11.574;2022-11-25T07:47:20;2.47;;;2.05;;
27428;SDS011;14881;48.092;11.574;2022-11-25T07:49:50;2.28;;;1.83;;
27428;SDS011;14881;48.092;11.574;2022-11-25T07:52:18;2.10;;;1.90;;
27428;SDS011;14881;48.092;11.574;2022-11-25T07:54:46;4.13;;;1.70;;
27428;SDS011;14881;48.092;11.574;2022-11-25T07:57:14;2.30;;;1.98;;
27428;SDS011;14881;48.092;11.574;2022-11-25T07:59:43;4.50;;;1.90;;
27428;SDS011;14881;48.092;11.574;2022-11-25T08:02:10;4.80;;;1.88;;
27428;SDS011;14881;48.092;11.574;2022-11-25T08:04:38;1.90;;;1.70;;
27428;SDS011;14881;48.092;11.574;2022-11-25T08:07:06;3.08;;;1.85;;
27428;SDS011;14881;48.092;11.574;2022-11-25T08:09:34;2.30;;;1.88;;
27428;SDS011;14881;48.092;11.574;2022-11-25T08:12:02;5.18;;;2.58;;
27428;SDS011;14881;48.092;11.574;2022-11-25T08:14:30;3.20;;;2.00;;
27428;SDS011;14881;48.092;11.574;2022-11-25T08:16:59;4.70;;;2.13;;
27428;SDS011;14881;48.092;11.574;2022-11-25T08:19:28;2.08;;;1.88;;
27428;SDS011;14881;48.092;11.574;2022-11-25T08:21:57;2.92;;;2.00;;
27428;SDS011;14881;48.092;11.574;2022-11-25T08:24:25;4.40;;;2.33;;
27428;SDS011;14881;48.092;11.574;2022-11-25T08:26:53;1.75;;;1.65;;
27428;SDS011;14881;48.092;11.574;2022-11-25T08:29:23;2.20;;;2.00;;
27428;SDS011;14881;48.092;11.574;2022-11-25T08:31:51;3.35;;;1.88;;
27428;SDS011;14881;48.092;11.574;2022-11-25T08:34:21;2.72;;;2.17;;
27428;SDS011;14881;48.092;11.574;2022-11-25T08:36:50;3.40;;;2.40;;
27428;SDS011;14881;48.092;11.574;2022-11-25T08:39:19;2.13;;;1.88;;
27428;SDS011;14881;48.092;11.574;2022-11-25T08:42:07;2.58;;;2.10;;
27428;SDS011;14881;48.092;11.574;2022-11-25T08:44:35;3.63;;;1.90;;
27428;SDS011;14881;48.092;11.574;2022-11-25T08:47:03;2.85;;;2.13;;
27428;SDS011;14881;48.092;11.574;2022-11-25T08:49:33;2.25;;;1.85;;
27428;SDS011;14881;48.092;11.574;2022-11-25T08:52:07;3.50;;;1.88;;
27428;SDS011;14881;48.092;11.574;2022-11-25T08:54:35;4.15;;;1.85;;
27428;SDS011;14881;48.092;11.574;2022-11-25T08:57:03;3.13;;;2.00;;
27428;SDS011;14881;48.092;11.574;2022-11-25T08:59:31;3.55;;;2.30;;
27428;SDS011;14881;48.092;11.574;2022-11-25T09:01:59;3.00;;;2.30;;
27428;SDS011;14881;48.092;11.574;2022-11-25T09:04:27;2.28;;;2.08;;
27428;SDS011;14881;48.092;11.574;2022-11-25T09:06:57;5.35;;;2.30;;
27428;SDS011;14881;48.092;11.574;2022-11-25T09:09:26;3.30;;;2.85;;
27428;SDS011;14881;48.092;11.574;2022-11-25T09:11:54;3.13;;;2.45;;
27428;SDS011;14881;48.092;11.574;2022-11-25T09:14:22;8.05;;;5.50;;
27428;SDS011;14881;48.092;11.574;2022-11-25T09:16:50;16.75;;;12.32;;
27428;SDS011;14881;48.092;11.574;2022-11-25T09:19:19;9.27;;;7.20;;
27428;SDS011;14881;48.092;11.574;2022-11-25T09:21:47;6.40;;;4.88;;
27428;SDS011;14881;48.092;11.574;2022-11-25T09:24:17;6.28;;;4.05;;
27428;SDS011;14881;48.092;11.574;2022-11-25T09:26:45;6.28;;;3.50;;
27428;SDS011;14881;48.092;11.574;2022-11-25T09:29:14;3.95;;;3.55;;
27428;SDS011;14881;48.092;11.574;2022-11-25T09:31:42;5.80;;;3.35;;
27428;SDS011;14881;48.092;11.574;2022-11-25T09:34:15;4.38;;;3.90;;
27428;SDS011;14881;48.092;11.574;2022-11-25T09:36:43;3.92;;;3.40;;
27428;SDS011;14881;48.092;11.574;2022-11-25T09:39:11;4.50;;;3.83;;
27428;SDS011;14881;48.092;11.574;2022-11-25T09:41:48;4.30;;;3.33;;
27428;SDS011;14881;48.092;11.574;2022-11-25T09:44:47;6.53;;;3.40;;
27428;SDS011;14881;48.092;11.574;2022-11-25T09:47:46;6.63;;;3.83;;
27428;SDS011;14881;48.092;11.574;2022-11-25T09:50:25;7.90;;;3.80;;
27428;SDS011;14881;48.092;11.574;2022-11-25T09:53:03;4.18;;;3.50;;
27428;SDS011;14881;48.092;11.574;2022-11-25T09:55:44;8.45;;;3.80;;
27428;SDS011;14881;48.092;11.574;2022-11-25T09:58:18;4.95;;;3.10;;
27428;SDS011;14881;48.092;11.574;2022-11-25T10:00:52;3.40;;;2.88;;
27428;SDS011;14881;48.092;11.574;2022-11-25T10:03:23;4.97;;;3.05;;
27428;SDS011;14881;48.092;11.574;2022-11-25T10:06:00;6.47;;;3.30;;
27428;SDS011;14881;48.092;11.574;2022-11-25T10:08:34;3.83;;;2.80;;
27428;SDS011;14881;48.092;11.574;2022-11-25T10:11:09;3.33;;;2.55;;
27428;SDS011;14881;48.092;11.574;2022-11-25T10:13:47;3.47;;;1.88;;
27428;SDS011;14881;48.092;11.574;2022-11-25T10:16:27;3.10;;;1.60;;
27428;SDS011;14881;48.092;11.574;2022-11-25T10:19:00;1.88;;;1.70;;
27428;SDS011;14881;48.092;11.574;2022-11-25T10:21:38;1.70;;;1.60;;
27428;SDS011;14881;48.092;11.574;2022-11-25T10:24:08;2.17;;;1.70;;
27428;SDS011;14881;48.092;11.574;2022-11-25T10:26:40;2.65;;;1.50;;
27428;SDS011;14881;48.092;11.574;2022-11-25T10:29:20;9.20;;;4.40;;
27428;SDS011;14881;48.092;11.574;2022-11-25T10:31:50;4.90;;;3.10;;
27428;SDS011;14881;48.092;11.574;2022-11-25T10:34:29;3.53;;;2.33;;
27428;SDS011;14881;48.092;11.574;2022-11-25T10:37:04;4.72;;;2.00;;
27428;SDS011;14881;48.092;11.574;2022-11-25T10:39:37;3.63;;;1.85;;
27428;SDS011;14881;48.092;11.574;2022-11-25T10:42:05;2.97;;;1.80;;
27428;SDS011;14881;48.092;11.574;2022-11-25T10:44:47;2.53;;;2.03;;
27428;SDS011;14881;48.092;11.574;2022-11-25T10:47:19;2.88;;;2.03;;
27428;SDS011;14881;48.092;11.574;2022-11-25T10:50:07;2.03;;;1.67;;
27428;SDS011;14881;48.092;11.574;2022-11-25T10:52:43;1.83;;;1.73;;
27428;SDS011;14881;48.092;11.574;2022-11-25T10:55:17;2.40;;;1.65;;
27428;SDS011;14881;48.092;11.574;2022-11-25T10:57:47;2.28;;;1.70;;
27428;SDS011;14881;48.092;11.574;2022-11-25T11:00:24;2.50;;;1.80;;
27428;SDS011;14881;48.092;11.574;2022-11-25T11:02:55;3.65;;;1.60;;
27428;SDS011;14881;48.092;11.574;2022-11-25T11:05:24;2.58;;;1.95;;
27428;SDS011;14881;48.092;11.574;2022-11-25T11:08:06;2.83;;;1.80;;
27428;SDS011;14881;48.092;11.574;2022-11-25T11:10:36;2.25;;;1.60;;
27428;SDS011;14881;48.092;11.574;2022-11-25T11:13:05;2.35;;;1.45;;
27428;SDS011;14881;48.092;11.574;2022-11-25T11:15:48;2.00;;;1.75;;
27428;SDS011;14881;48.092;11.574;2022-11-25T11:18:20;3.53;;;2.05;;
27428;SDS011;14881;48.092;11.574;2022-11-25T11:20:51;3.50;;;2.90;;
27428;SDS011;14881;48.092;11.574;2022-11-25T11:23:20;6.90;;;4.35;;
27428;SDS011;14881;48.092;11.574;2022-11-25T11:25:56;3.10;;;2.33;;
27428;SDS011;14881;48.092;11.574;2022-11-25T11:28:27;1.48;;;1.38;;
27428;SDS011;14881;48.092;11.574;2022-11-25T11:31:00;7.70;;;2.13;;
27428;SDS011;14881;48.092;11.574;2022-11-25T11:33:33;1.80;;;1.42;;
27428;SDS011;14881;48.092;11.574;2022-11-25T11:36:09;4.97;;;1.70;;
27428;SDS011;14881;48.092;11.574;2022-11-25T11:38:52;4.20;;;1.50;;
27428;SDS011;14881;48.092;11.574;2022-11-25T11:41:26;1.30;;;1.20;;
27428;SDS011;14881;48.092;11.574;2022-11-25T11:44:12;1.48;;;1.33;;
27428;SDS011;14881;48.092;11.574;2022-11-25T11:49:49;2.65;;;1.50;;
27428;SDS011;14881;48.092;11.574;2022-11-25T11:52:29;2.67;;;1.30;;
27428;SDS011;14881;48.092;11.574;2022-11-25T11:55:13;1.30;;;1.20;;
27428;SDS011;14881;48.092;11.574;2022-11-25T11:57:52;2.45;;;1.35;;
27428;SDS011;14881;48.092;11.574;2022-11-25T12:00:29;1.88;;;1.20;;
27428;SDS011;14881;48.092;11.574;2022-11-25T12:03:08;1.73;;;1.00;;
27428;SDS011;14881;48.092;11.574;2022-11-25T12:05:40;1.38;;;1.00;;
27428;SDS011;14881;48.092;11.574;2022-11-25T12:08:09;2.10;;;0.80;;
27428;SDS011;14881;48.092;11.574;2022-11-25T12:10:40;1.98;;;1.05;;
27428;SDS011;14881;48.092;11.574;2022-11-25T12:13:13;2.28;;;1.30;;
27428;SDS011;14881;48.092;11.574;2022-11-25T12:15:46;1.88;;;1.30;;
27428;SDS011;14881;48.092;11.574;2022-11-25T12:18:26;2.20;;;1.27;;
27428;SDS011;14881;48.092;11.574;2022-11-25T12:21:02;3.45;;;1.48;;
27428;SDS011;14881;48.092;11.574;2022-11-25T12:23:37;1.85;;;1.20;;
27428;SDS011;14881;48.092;11.574;2022-11-25T12:26:16;1.40;;;1.20;;
27428;SDS011;14881;48.092;11.574;2022-11-25T12:28:50;1.95;;;1.10;;
27428;SDS011;14881;48.092;11.574;2022-11-25T12:31:22;5.78;;;2.38;;
27428;SDS011;14881;48.092;11.574;2022-11-25T12:33:57;2.92;;;1.40;;
27428;SDS011;14881;48.092;11.574;2022-11-25T12:36:30;2.05;;;1.35;;
27428;SDS011;14881;48.092;11.574;2022-11-25T12:39:02;1.88;;;1.10;;
27428;SDS011;14881;48.092;11.574;2022-11-25T12:41:35;1.70;;;1.10;;
27428;SDS011;14881;48.092;11.574;2022-11-25T12:44:08;1.35;;;0.98;;
27428;SDS011;14881;48.092;11.574;2022-11-25T12:46:43;1.88;;;1.20;;
27428;SDS011;14881;48.092;11.574;2022-11-25T12:49:14;3.60;;;1.77;;
27428;SDS011;14881;48.092;11.574;2022-11-25T12:54:53;3.42;;;1.48;;
27428;SDS011;14881;48.092;11.574;2022-11-25T12:57:48;2.73;;;1.33;;
27428;SDS011;14881;48.092;11.574;2022-11-25T13:00:49;2.28;;;2.08;;
27428;SDS011;14881;48.092;11.574;2022-11-25T13:06:42;4.03;;;1.55;;
27428;SDS011;14881;48.092;11.574;2022-11-25T13:09:28;3.53;;;1.58;;
27428;SDS011;14881;48.092;11.574;2022-11-25T13:12:15;1.90;;;1.20;;
27428;SDS011;14881;48.092;11.574;2022-11-25T13:14:58;3.80;;;1.60;;
27428;SDS011;14881;48.092;11.574;2022-11-25T13:17:39;5.07;;;2.08;;
27428;SDS011;14881;48.092;11.574;2022-11-25T13:23:28;3.05;;;1.58;;
27428;SDS011;14881;48.092;11.574;2022-11-25T13:26:32;2.40;;;1.33;;
27428;SDS011;14881;48.092;11.574;2022-11-25T13:29:50;1.80;;;1.20;;
27428;SDS011;14881;48.092;11.574;2022-11-25T13:32:29;5.53;;;1.70;;
27428;SDS011;14881;48.092;11.574;2022-11-25T13:37:57;3.60;;;2.00;;
27428;SDS011;14881;48.092;11.574;2022-11-25T13:40:38;5.45;;;2.10;;
27428;SDS011;14881;48.092;11.574;2022-11-25T13:43:18;6.10;;;2.30;;
27428;SDS011;14881;48.092;11.574;2022-11-25T13:45:47;5.68;;;2.10;;
27428;SDS011;14881;48.092;11.574;2022-11-25T13:48:16;5.60;;;1.60;;
27428;SDS011;14881;48.092;11.574;2022-11-25T13:50:46;2.70;;;1.73;;
27428;SDS011;14881;48.092;11.574;2022-11-25T13:53:35;4.38;;;1.90;;
27428;SDS011;14881;48.092;11.574;2022-11-25T13:56:20;3.28;;;1.67;;
27428;SDS011;14881;48.092;11.574;2022-11-25T14:01:54;5.47;;;3.00;;
27428;SDS011;14881;48.092;11.574;2022-11-25T14:04:58;5.43;;;2.03;;
27428;SDS011;14881;48.092;11.574;2022-11-25T14:07:33;4.82;;;1.75;;
27428;SDS011;14881;48.092;11.574;2022-11-25T14:10:20;4.30;;;1.90;;
27428;SDS011;14881;48.092;11.574;2022-11-25T14:13:14;7.13;;;2.05;;
27428;SDS011;14881;48.092;11.574;2022-11-25T14:15:56;5.78;;;1.80;;
27428;SDS011;14881;48.092;11.574;2022-11-25T14:18:38;5.80;;;2.40;;
27428;SDS011;14881;48.092;11.574;2022-11-25T14:21:43;4.60;;;2.60;;
27428;SDS011;14881;48.092;11.574;2022-11-25T14:24:25;27.38;;;18.65;;
27428;SDS011;14881;48.092;11.574;2022-11-25T14:26:56;4.10;;;2.30;;
27428;SDS011;14881;48.092;11.574;2022-11-25T14:29:28;7.45;;;4.20;;
27428;SDS011;14881;48.092;11.574;2022-11-25T14:32:06;42.42;;;27.38;;
27428;SDS011;14881;48.092;11.574;2022-11-25T14:34:37;42.80;;;28.17;;
27428;SDS011;14881;48.092;11.574;2022-11-25T14:37:09;20.50;;;13.23;;
27428;SDS011;14881;48.092;11.574;2022-11-25T14:39:42;14.38;;;8.15;;
27428;SDS011;14881;48.092;11.574;2022-11-25T14:42:16;16.95;;;9.38;;
27428;SDS011;14881;48.092;11.574;2022-11-25T14:44:49;4.75;;;2.60;;
27428;SDS011;14881;48.092;11.574;2022-11-25T14:47:20;6.03;;;3.35;;
27428;SDS011;14881;48.092;11.574;2022-11-25T14:49:50;8.00;;;4.18;;
27428;SDS011;14881;48.092;11.574;2022-11-25T14:52:38;7.57;;;4.00;;
27428;SDS011;14881;48.092;11.574;2022-11-25T14:55:09;10.93;;;3.30;;
27428;SDS011;14881;48.092;11.574;2022-11-25T14:57:38;8.15;;;2.40;;
27428;SDS011;14881;48.092;11.574;2022-11-25T15:00:13;9.65;;;3.30;;
27428;SDS011;14881;48.092;11.574;2022-11-25T15:02:50;5.45;;;2.40;;
27428;SDS011;14881;48.092;11.574;2022-11-25T15:05:22;6.18;;;2.70;;
27428;SDS011;14881;48.092;11.574;2022-11-25T15:07:55;6.90;;;2.47;;
27428;SDS011;14881;48.092;11.574;2022-11-25T15:10:32;12.05;;;2.85;;
27428;SDS011;14881;48.092;11.574;2022-11-25T15:13:06;9.55;;;2.80;;
27428;SDS011;14881;48.092;11.574;2022-11-25T15:15:41;7.32;;;2.83;;
27428;SDS011;14881;48.092;11.574;2022-11-25T15:18:13;6.93;;;2.85;;
27428;SDS011;14881;48.092;11.574;2022-11-25T15:20:46;8.68;;;2.75;;